sensor_id;sensor_type;location;lat;lon;timestamp;pressure;altitude;pressure_sealevel;temperature;humidity
2214;BME280;1113;42.018;23.986;2022-11-03T00:00:45;93324.03;;;6.14;100.00
2214;BME280;1113;42.018;23.986;2022-11-03T00:03:12;93326.66;;;5.94;100.00
2214;BME280;1113;42.018;23.986;2022-11-03T00:05:40;93335.38;;;5.62;100.00
2214;BME280;1113;42.018;23.986;2022-11-03T00:08:24;93322.56;;;5.78;100.00
2214;BME280;1113;42.018;23.986;2022-11-03T00:10:51;93334.13;;;5.29;100.00
2214;BME280;1113;42.018;23.986;2022-11-03T00:13:18;93328.75;;;5.41;100.00
2214;BME280;1113;42.018;23.986;2022-11-03T00:15:48;93325.63;;;5.69;100.00
2214;BME280;1113;42.018;23.986;2022-11-03T00:18:15;93332.28;;;5.96;100.00
2214;BME280;1113;42.018;23.986;2022-11-03T00:20:43;93334.75;;;6.37;100.00
2214;BME280;1113;42.018;23.986;2022-11-03T00:23:10;93343.50;;;6.15;100.00
2214;BME280;1113;42.018;23.986;2022-11-03T00:25:37;93342.06;;;5.38;100.00
2214;BME280;1113;42.018;23.986;2022-11-03T00:28:03;93351.78;;;5.26;100.00
2214;BME280;1113;42.018;23.986;2022-11-03T00:30:30;93338.47;;;5.34;100.00
2214;BME280;1113;42.018;23.986;2022-11-03T00:32:57;93347.16;;;5.53;100.00
2214;BME280;1113;42.018;23.986;2022-11-03T00:35:24;93342.06;;;5.43;100.00
2214;BME280;1113;42.018;23.986;2022-11-03T00:37:52;93345.41;;;5.38;100.00
2214;BME280;1113;42.018;23.986;2022-11-03T00:40:19;93345.91;;;5.35;100.00
2214;BME280;1113;42.018;23.986;2022-11-03T00:42:46;93344.38;;;5.34;100.00
2214;BME280;1113;42.018;23.986;2022-11-03T00:45:12;93345.41;;;5.38;100.00
2214;BME280;1113;42.018;23.986;2022-11-03T00:47:39;93350.75;;;5.62;100.00
2214;BME280;1113;42.018;23.986;2022-11-03T00:50:26;93340.47;;;5.88;100.00
2214;BME280;1113;42.018;23.986;2022-11-03T00:52:54;93339.22;;;5.90;100.00
2214;BME280;1113;42.018;23.986;2022-11-03T00:55:21;93336.66;;;5.65;100.00
2214;BME280;1113;42.018;23.986;2022-11-03T00:57:48;93339.00;;;5.36;100.00
2214;BME280;1113;42.018;23.986;2022-11-03T01:00:17;93336.66;;;5.19;100.00
2214;BME280;1113;42.018;23.986;2022-11-03T01:02:44;93337.47;;;5.25;100.00
2214;BME280;1113;42.018;23.986;2022-11-03T01:05:10;93335.41;;;5.52;100.00
2214;BME280;1113;42.018;23.986;2022-11-03T01:07:56;93325.91;;;5.83;100.00
2214;BME280;1113;42.018;23.986;2022-11-03T01:10:23;93327.16;;;5.96;100.00
2214;BME280;1113;42.018;23.986;2022-11-03T01:12:50;93326.91;;;6.03;100.00
2214;BME280;1113;42.018;23.986;2022-11-03T01:15:16;93326.13;;;6.02;100.00
2214;BME280;1113;42.018;23.986;2022-11-03T01:17:43;93338.41;;;6.10;100.00
2214;BME280;1113;42.018;23.986;2022-11-03T01:20:10;93324.63;;;5.60;100.00
2214;BME280;1113;42.018;23.986;2022-11-03T01:22:37;93328.72;;;5.11;100.00
2214;BME280;1113;42.018;23.986;2022-11-03T01:25:06;93332.09;;;5.26;100.00
2214;BME280;1113;42.018;23.986;2022-11-03T01:27:33;93321.81;;;5.52;100.00
2214;BME280;1113;42.018;23.986;2022-11-03T01:30:00;93320.56;;;5.49;100.00
2214;BME280;1113;42.018;23.986;2022-11-03T01:32:27;93324.13;;;5.58;100.00
2214;BME280;1113;42.018;23.986;2022-11-03T01:34:54;93317.75;;;5.30;100.00
2214;BME280;1113;42.018;23.986;2022-11-03T01:37:20;93314.41;;;5.35;100.00
2214;BME280;1113;42.018;23.986;2022-11-03T01:39:47;93313.66;;;5.34;100.00
2214;BME280;1113;42.018;23.986;2022-11-03T01:42:15;93319.28;;;5.42;100.00
2214;BME280;1113;42.018;23.986;2022-11-03T01:44:45;93318.50;;;5.46;100.00
2214;BME280;1113;42.018;23.986;2022-11-03T01:47:20;93313.59;;;5.70;100.00
2214;BME280;1113;42.018;23.986;2022-11-03T01:49:49;93314.63;;;5.84;100.00
2214;BME280;1113;42.018;23.986;2022-11-03T01:52:22;93318.16;;;6.09;100.00
2214;BME280;1113;42.018;23.986;2022-11-03T01:54:54;93318.06;;;6.39;100.00
2214;BME280;1113;42.018;23.986;2022-11-03T01:57:28;93317.81;;;6.36;100.00
2214;BME280;1113;42.018;23.986;2022-11-03T01:59:57;93323.00;;;6.25;100.00
2214;BME280;1113;42.018;23.986;2022-11-03T02:02:26;93325.78;;;6.24;100.00
2214;BME280;1113;42.018;23.986;2022-11-03T02:04:53;93317.34;;;6.28;100.00
2214;BME280;1113;42.018;23.986;2022-11-03T02:07:24;93322.66;;;6.42;100.00
2214;BME280;1113;42.018;23.986;2022-11-03T02:09:52;93321.94;;;6.31;100.00
2214;BME280;1113;42.018;23.986;2022-11-03T02:12:20;93324.22;;;6.38;100.00
2214;BME280;1113;42.018;23.986;2022-11-03T02:14:52;93322.72;;;6.27;100.00
2214;BME280;1113;42.018;23.986;2022-11-03T02:17:21;93310.94;;;6.21;100.00
2214;BME280;1113;42.018;23.986;2022-11-03T02:19:52;93309.41;;;6.20;100.00
2214;BME280;1113;42.018;23.986;2022-11-03T02:22:35;93314.28;;;6.26;100.00
2214;BME280;1113;42.018;23.986;2022-11-03T02:25:14;93311.97;;;6.20;100.00
2214;BME280;1113;42.018;23.986;2022-11-03T02:27:44;93314.00;;;6.23;100.00
2214;BME280;1113;42.018;23.986;2022-11-03T02:30:11;93312.22;;;6.28;100.00
2214;BME280;1113;42.018;23.986;2022-11-03T02:32:43;93303.94;;;6.42;100.00
2214;BME280;1113;42.018;23.986;2022-11-03T02:35:19;93300.22;;;6.68;100.00
2214;BME280;1113;42.018;23.986;2022-11-03T02:37:50;93302.56;;;6.59;100.00
2214;BME280;1113;42.018;23.986;2022-11-03T02:40:24;93303.34;;;6.60;100.00
2214;BME280;1113;42.018;23.986;2022-11-03T02:42:54;93307.44;;;6.61;100.00
2214;BME280;1113;42.018;23.986;2022-11-03T02:45:24;93304.78;;;6.76;100.00
2214;BME280;1113;42.018;23.986;2022-11-03T02:47:54;93306.88;;;6.69;100.00
2214;BME280;1113;42.018;23.986;2022-11-03T02:50:25;93308.34;;;6.85;100.00
2214;BME280;1113;42.018;23.986;2022-11-03T02:52:53;93309.69;;;6.68;100.00
2214;BME280;1113;42.018;23.986;2022-11-03T02:55:28;93314.22;;;6.37;100.00
2214;BME280;1113;42.018;23.986;2022-11-03T02:58:04;93315.31;;;6.15;100.00
2214;BME280;1113;42.018;23.986;2022-11-03T03:00:37;93314.53;;;6.15;100.00
2214;BME280;1113;42.018;23.986;2022-11-03T03:03:09;93315.00;;;6.37;100.00
2214;BME280;1113;42.018;23.986;2022-11-03T03:05:39;93312.78;;;6.70;100.00
2214;BME280;1113;42.018;23.986;2022-11-03T03:08:09;93315.69;;;6.97;100.00
2214;BME280;1113;42.018;23.986;2022-11-03T03:10:39;93320.28;;;7.00;100.00
2214;BME280;1113;42.018;23.986;2022-11-03T03:13:09;93311.50;;;6.67;100.00
2214;BME280;1113;42.018;23.986;2022-11-03T03:15:43;93318.81;;;6.45;100.00
2214;BME280;1113;42.018;23.986;2022-11-03T03:18:15;93309.41;;;6.20;100.00
2214;BME280;1113;42.018;23.986;2022-11-03T03:20:51;93310.38;;;6.34;100.00
2214;BME280;1113;42.018;23.986;2022-11-03T03:23:22;93312.88;;;6.49;100.00
2214;BME280;1113;42.018;23.986;2022-11-03T03:25:53;93319.22;;;6.62;100.00
2214;BME280;1113;42.018;23.986;2022-11-03T03:28:25;93313.28;;;6.67;100.00
2214;BME280;1113;42.018;23.986;2022-11-03T03:30:56;93318.13;;;6.73;100.00
2214;BME280;1113;42.018;23.986;2022-11-03T03:33:25;93314.28;;;6.76;100.00
2214;BME280;1113;42.018;23.986;2022-11-03T03:35:54;93308.91;;;6.77;100.00
2214;BME280;1113;42.018;23.986;2022-11-03T03:38:29;93316.84;;;6.81;100.00
2214;BME280;1113;42.018;23.986;2022-11-03T03:40:59;93311.63;;;6.91;98.64
2214;BME280;1113;42.018;23.986;2022-11-03T03:43:29;93315.56;;;7.17;100.00
2214;BME280;1113;42.018;23.986;2022-11-03T03:46:00;93309.66;;;6.78;100.00
2214;BME280;1113;42.018;23.986;2022-11-03T03:48:29;93315.34;;;6.70;100.00
2214;BME280;1113;42.018;23.986;2022-11-03T03:50:57;93313.56;;;6.65;100.00
2214;BME280;1113;42.018;23.986;2022-11-03T03:53:27;93311.16;;;6.84;100.00
2214;BME280;1113;42.018;23.986;2022-11-03T03:55:54;93304.84;;;6.66;100.00
2214;BME280;1113;42.018;23.986;2022-11-03T03:58:22;93304.56;;;6.68;100.00
2214;BME280;1113;42.018;23.986;2022-11-03T04:00:50;93305.56;;;6.72;100.00
2214;BME280;1113;42.018;23.986;2022-11-03T04:03:18;93307.34;;;6.76;100.00
2214;BME280;1113;42.018;23.986;2022-11-03T04:05:45;93302.22;;;6.76;100.00
2214;BME280;1113;42.018;23.986;2022-11-03T04:08:14;93303.56;;;6.63;100.00
2214;BME280;1113;42.018;23.986;2022-11-03T04:10:41;93299.75;;;6.61;100.00
2214;BME280;1113;42.018;23.986;2022-11-03T04:13:28;93301.53;;;6.60;100.00
2214;BME280;1113;42.018;23.986;2022-11-03T04:16:14;93308.44;;;6.65;100.00
2214;BME280;1113;42.018;23.986;2022-11-03T04:18:59;93299.63;;;6.32;100.00
2214;BME280;1113;42.018;23.986;2022-11-03T04:21:43;93302.69;;;6.34;100.00
2214;BME280;1113;42.018;23.986;2022-11-03T04:24:28;93306.06;;;6.24;100.00
2214;BME280;1113;42.018;23.986;2022-11-03T04:26:56;93305.75;;;6.41;100.00
2214;BME280;1113;42.018;23.986;2022-11-03T04:29:26;93308.25;;;6.51;100.00
2214;BME280;1113;42.018;23.986;2022-11-03T04:31:55;93303.06;;;6.61;100.00
2214;BME280;1113;42.018;23.986;2022-11-03T04:34:21;93305.56;;;6.77;100.00
2214;BME280;1113;42.018;23.986;2022-11-03T04:36:48;93307.06;;;6.83;100.00
2214;BME280;1113;42.018;23.986;2022-11-03T04:39:18;93307.34;;;6.76;100.00
2214;BME280;1113;42.018;23.986;2022-11-03T04:41:45;93309.16;;;6.71;100.00
2214;BME280;1113;42.018;23.986;2022-11-03T04:44:14;93303.50;;;6.24;100.00
2214;BME280;1113;42.018;23.986;2022-11-03T04:46:42;93317.69;;;5.81;100.00
2214;BME280;1113;42.018;23.986;2022-11-03T04:49:21;93317.44;;;5.83;100.00
2214;BME280;1113;42.018;23.986;2022-11-03T04:51:48;93316.94;;;5.81;100.00
2214;BME280;1113;42.018;23.986;2022-11-03T04:54:18;93307.47;;;5.91;100.00
2214;BME280;1113;42.018;23.986;2022-11-03T04:56:45;93316.34;;;6.14;100.00
2214;BME280;1113;42.018;23.986;2022-11-03T04:59:13;93315.78;;;6.32;100.00
2214;BME280;1113;42.018;23.986;2022-11-03T05:01:41;93307.00;;;6.44;100.00
2214;BME280;1113;42.018;23.986;2022-11-03T05:04:13;93306.94;;;6.59;100.00
2214;BME280;1113;42.018;23.986;2022-11-03T05:06:40;93307.75;;;6.49;100.00
2214;BME280;1113;42.018;23.986;2022-11-03T05:09:20;93307.84;;;6.24;100.00
2214;BME280;1113;42.018;23.986;2022-11-03T05:11:48;93312.75;;;6.25;100.00
2214;BME280;1113;42.018;23.986;2022-11-03T05:14:17;93307.53;;;6.41;100.00
2214;BME280;1113;42.018;23.986;2022-11-03T05:16:45;93302.63;;;6.49;100.00
2214;BME280;1113;42.018;23.986;2022-11-03T05:19:19;93313.84;;;6.63;100.00
2214;BME280;1113;42.018;23.986;2022-11-03T05:21:47;93329.38;;;6.87;100.00
2214;BME280;1113;42.018;23.986;2022-11-03T05:24:17;93332.19;;;6.86;100.00
2214;BME280;1113;42.018;23.986;2022-11-03T05:26:45;93343.84;;;6.63;100.00
2214;BME280;1113;42.018;23.986;2022-11-03T05:29:15;93342.47;;;6.21;100.00
2214;BME280;1113;42.018;23.986;2022-11-03T05:31:46;93338.63;;;6.19;100.00
2214;BME280;1113;42.018;23.986;2022-11-03T05:34:28;93342.72;;;6.20;100.00
2214;BME280;1113;42.018;23.986;2022-11-03T05:36:58;93350.66;;;6.23;100.00
2214;BME280;1113;42.018;23.986;2022-11-03T05:39:29;93358.28;;;6.44;100.00
2214;BME280;1113;42.018;23.986;2022-11-03T05:41:57;93352.28;;;6.69;100.00
2214;BME280;1113;42.018;23.986;2022-11-03T05:44:28;93357.47;;;6.53;100.00
2214;BME280;1113;42.018;23.986;2022-11-03T05:46:58;93364.69;;;6.46;100.00
2214;BME280;1113;42.018;23.986;2022-11-03T05:49:27;93366.75;;;6.44;100.00
2214;BME280;1113;42.018;23.986;2022-11-03T05:51:55;93364.88;;;6.60;100.00
2214;BME280;1113;42.018;23.986;2022-11-03T05:54:24;93363.84;;;6.66;100.00
2214;BME280;1113;42.018;23.986;2022-11-03T05:56:52;93366.38;;;6.71;100.00
2214;BME280;1113;42.018;23.986;2022-11-03T05:59:22;93375.59;;;6.77;100.00
2214;BME280;1113;42.018;23.986;2022-11-03T06:01:51;93373.78;;;6.83;100.00
2214;BME280;1113;42.018;23.986;2022-11-03T06:04:22;93377.84;;;6.89;100.00
2214;BME280;1113;42.018;23.986;2022-11-03T06:06:53;93373.97;;;6.96;100.00
2214;BME280;1113;42.018;23.986;2022-11-03T06:09:22;93375.00;;;6.95;100.00
2214;BME280;1113;42.018;23.986;2022-11-03T06:11:53;93379.78;;;7.07;100.00
2214;BME280;1113;42.018;23.986;2022-11-03T06:14:22;93388.78;;;7.05;100.00
2214;BME280;1113;42.018;23.986;2022-11-03T06:16:51;93391.56;;;7.13;100.00
2214;BME280;1113;42.018;23.986;2022-11-03T06:19:21;93385.81;;;7.26;100.00
2214;BME280;1113;42.018;23.986;2022-11-03T06:21:50;93386.50;;;7.42;100.00
2214;BME280;1113;42.018;23.986;2022-11-03T06:24:21;93389.00;;;7.52;100.00
2214;BME280;1113;42.018;23.986;2022-11-03T06:26:48;93396.09;;;7.66;100.00
2214;BME280;1113;42.018;23.986;2022-11-03T06:29:17;93393.38;;;7.52;100.00
2214;BME280;1113;42.018;23.986;2022-11-03T06:31:47;93399.34;;;7.76;100.00
2214;BME280;1113;42.018;23.986;2022-11-03T06:34:39;93396.34;;;7.98;100.00
2214;BME280;1113;42.018;23.986;2022-11-03T06:37:15;93384.97;;;8.04;100.00
2214;BME280;1113;42.018;23.986;2022-11-03T06:39:46;93393.03;;;8.21;100.00
2214;BME280;1113;42.018;23.986;2022-11-03T06:42:14;93391.91;;;8.33;100.00
2214;BME280;1113;42.018;23.986;2022-11-03T06:44:43;93385.03;;;8.52;100.00
2214;BME280;1113;42.018;23.986;2022-11-03T06:47:19;93387.22;;;8.64;100.00
2214;BME280;1113;42.018;23.986;2022-11-03T06:49:47;93386.25;;;8.78;100.00
2214;BME280;1113;42.018;23.986;2022-11-03T06:52:22;93389.06;;;8.82;100.00
2214;BME280;1113;42.018;23.986;2022-11-03T06:54:53;93383.44;;;8.99;100.00
2214;BME280;1113;42.018;23.986;2022-11-03T06:57:20;93388.13;;;9.15;99.38
2214;BME280;1113;42.018;23.986;2022-11-03T06:59:49;93385.03;;;9.32;97.17
2214;BME280;1113;42.018;23.986;2022-11-03T07:02:31;93387.69;;;9.46;93.98
2214;BME280;1113;42.018;23.986;2022-11-03T07:05:16;93393.88;;;9.64;92.08
2214;BME280;1113;42.018;23.986;2022-11-03T07:07:45;93393.16;;;9.77;90.36
2214;BME280;1113;42.018;23.986;2022-11-03T07:10:13;93383.50;;;9.82;89.65
2214;BME280;1113;42.018;23.986;2022-11-03T07:12:41;93386.16;;;9.96;87.91
2214;BME280;1113;42.018;23.986;2022-11-03T07:15:18;93387.59;;;10.02;87.83
2214;BME280;1113;42.018;23.986;2022-11-03T07:17:46;93392.56;;;10.12;88.00
2214;BME280;1113;42.018;23.986;2022-11-03T07:20:14;93382.50;;;10.30;87.80
2214;BME280;1113;42.018;23.986;2022-11-03T07:22:42;93378.31;;;10.48;85.56
2214;BME280;1113;42.018;23.986;2022-11-03T07:25:15;93380.50;;;10.68;83.92
2214;BME280;1113;42.018;23.986;2022-11-03T07:27:43;93381.13;;;10.87;80.54
2214;BME280;1113;42.018;23.986;2022-11-03T07:30:16;93376.16;;;10.91;81.15
2214;BME280;1113;42.018;23.986;2022-11-03T07:32:44;93378.75;;;11.04;80.80
2214;BME280;1113;42.018;23.986;2022-11-03T07:35:28;93367.84;;;11.30;78.34
2214;BME280;1113;42.018;23.986;2022-11-03T07:37:59;93370.88;;;11.46;78.71
2214;BME280;1113;42.018;23.986;2022-11-03T07:40:31;93362.34;;;11.67;75.76
2214;BME280;1113;42.018;23.986;2022-11-03T07:43:00;93359.25;;;11.79;74.78
2214;BME280;1113;42.018;23.986;2022-11-03T07:45:35;93362.81;;;11.92;74.81
2214;BME280;1113;42.018;23.986;2022-11-03T07:48:13;93358.53;;;12.10;73.44
2214;BME280;1113;42.018;23.986;2022-11-03T07:50:44;93360.88;;;12.28;72.63
2214;BME280;1113;42.018;23.986;2022-11-03T07:53:13;93352.97;;;12.33;71.11
2214;BME280;1113;42.018;23.986;2022-11-03T07:55:44;93358.94;;;12.43;71.95
2214;BME280;1113;42.018;23.986;2022-11-03T07:58:26;93350.06;;;12.66;71.25
2214;BME280;1113;42.018;23.986;2022-11-03T08:00:54;93351.63;;;12.93;69.16
2214;BME280;1113;42.018;23.986;2022-11-03T08:03:39;93349.22;;;13.05;68.73
2214;BME280;1113;42.018;23.986;2022-11-03T08:06:07;93345.13;;;13.21;66.81
2214;BME280;1113;42.018;23.986;2022-11-03T08:08:34;93347.72;;;13.30;66.89
2214;BME280;1113;42.018;23.986;2022-11-03T08:11:02;93343.13;;;13.44;66.55
2214;BME280;1113;42.018;23.986;2022-11-03T08:13:29;93343.63;;;13.55;67.07
2214;BME280;1113;42.018;23.986;2022-11-03T08:15:56;93346.19;;;13.64;64.98
2214;BME280;1113;42.018;23.986;2022-11-03T08:18:23;93339.63;;;13.75;65.24
2214;BME280;1113;42.018;23.986;2022-11-03T08:20:50;93335.94;;;13.84;64.26
2214;BME280;1113;42.018;23.986;2022-11-03T08:23:17;93332.81;;;14.00;63.72
2214;BME280;1113;42.018;23.986;2022-11-03T08:25:44;93330.63;;;14.28;64.33
2214;BME280;1113;42.018;23.986;2022-11-03T08:28:13;93323.22;;;14.38;63.20
2214;BME280;1113;42.018;23.986;2022-11-03T08:30:40;93333.13;;;14.53;61.96
2214;BME280;1113;42.018;23.986;2022-11-03T08:33:06;93322.38;;;14.64;60.72
2214;BME280;1113;42.018;23.986;2022-11-03T08:35:44;93327.09;;;14.91;60.57
2214;BME280;1113;42.018;23.986;2022-11-03T08:38:11;93328.03;;;15.16;59.10
2214;BME280;1113;42.018;23.986;2022-11-03T08:40:38;93320.78;;;15.42;58.78
2214;BME280;1113;42.018;23.986;2022-11-03T08:43:05;93321.88;;;15.62;57.90
2214;BME280;1113;42.018;23.986;2022-11-03T08:45:33;93322.47;;;15.80;57.71
2214;BME280;1113;42.018;23.986;2022-11-03T08:48:00;93320.34;;;16.06;56.72
2214;BME280;1113;42.018;23.986;2022-11-03T08:50:26;93316.38;;;16.21;55.85
2214;BME280;1113;42.018;23.986;2022-11-03T08:52:54;93321.69;;;16.37;55.11
2214;BME280;1113;42.018;23.986;2022-11-03T08:55:21;93321.47;;;16.54;54.77
2214;BME280;1113;42.018;23.986;2022-11-03T08:57:48;93312.06;;;16.74;54.08
2214;BME280;1113;42.018;23.986;2022-11-03T09:00:15;93312.81;;;16.87;54.75
2214;BME280;1113;42.018;23.986;2022-11-03T09:02:44;93309.28;;;17.07;52.07
2214;BME280;1113;42.018;23.986;2022-11-03T09:05:11;93309.91;;;17.28;53.31
2214;BME280;1113;42.018;23.986;2022-11-03T09:07:38;93307.09;;;17.49;51.73
2214;BME280;1113;42.018;23.986;2022-11-03T09:10:07;93307.97;;;17.81;50.06
2214;BME280;1113;42.018;23.986;2022-11-03T09:12:34;93305.72;;;18.11;48.94
2214;BME280;1113;42.018;23.986;2022-11-03T09:15:01;93308.19;;;18.36;48.13
2214;BME280;1113;42.018;23.986;2022-11-03T09:17:29;93301.94;;;18.56;48.36
2214;BME280;1113;42.018;23.986;2022-11-03T09:19:57;93293.66;;;18.85;47.88
2214;BME280;1113;42.018;23.986;2022-11-03T09:22:24;93291.06;;;19.05;47.18
2214;BME280;1113;42.018;23.986;2022-11-03T09:24:51;93282.66;;;19.15;47.03
2214;BME280;1113;42.018;23.986;2022-11-03T09:27:18;93281.50;;;19.32;46.88
2214;BME280;1113;42.018;23.986;2022-11-03T09:29:45;93272.88;;;19.50;45.09
2214;BME280;1113;42.018;23.986;2022-11-03T09:32:11;93266.53;;;19.71;44.32
2214;BME280;1113;42.018;23.986;2022-11-03T09:34:38;93272.34;;;19.80;43.66
2214;BME280;1113;42.018;23.986;2022-11-03T09:37:06;93272.75;;;19.63;44.90
2214;BME280;1113;42.018;23.986;2022-11-03T09:39:33;93264.47;;;19.80;43.78
2214;BME280;1113;42.018;23.986;2022-11-03T09:42:00;93263.72;;;20.02;43.70
2214;BME280;1113;42.018;23.986;2022-11-03T09:44:29;93258.81;;;20.24;43.85
2214;BME280;1113;42.018;23.986;2022-11-03T09:46:57;93254.66;;;20.42;42.04
2214;BME280;1113;42.018;23.986;2022-11-03T09:49:25;93259.13;;;20.68;41.68
2214;BME280;1113;42.018;23.986;2022-11-03T09:51:54;93243.91;;;20.80;41.88
2214;BME280;1113;42.018;23.986;2022-11-03T09:54:22;93252.56;;;21.11;41.50
2214;BME280;1113;42.018;23.986;2022-11-03T09:56:49;93246.78;;;21.28;40.16
2214;BME280;1113;42.018;23.986;2022-11-03T09:59:17;93238.91;;;21.28;40.45
2214;BME280;1113;42.018;23.986;2022-11-03T10:01:45;93235.88;;;21.26;41.15
2214;BME280;1113;42.018;23.986;2022-11-03T10:04:14;93241.03;;;21.19;41.22
2214;BME280;1113;42.018;23.986;2022-11-03T10:06:42;93226.78;;;21.20;40.96
2214;BME280;1113;42.018;23.986;2022-11-03T10:09:14;93228.25;;;21.18;41.31
2214;BME280;1113;42.018;23.986;2022-11-03T10:11:44;93226.72;;;21.13;41.13
2214;BME280;1113;42.018;23.986;2022-11-03T10:14:13;93222.19;;;21.10;40.57
2214;BME280;1113;42.018;23.986;2022-11-03T10:16:42;93215.03;;;20.51;41.48
2214;BME280;1113;42.018;23.986;2022-11-03T10:19:12;93214.78;;;20.33;41.42
2214;BME280;1113;42.018;23.986;2022-11-03T10:21:40;93212.72;;;20.45;41.10
2214;BME280;1113;42.018;23.986;2022-11-03T10:24:09;93212.16;;;20.59;42.23
2214;BME280;1113;42.018;23.986;2022-11-03T10:27:19;93203.28;;;20.67;42.04
2214;BME280;1113;42.018;23.986;2022-11-03T10:30:03;93201.50;;;20.75;40.93
2214;BME280;1113;42.018;23.986;2022-11-03T10:32:31;93202.75;;;20.85;40.61
2214;BME280;1113;42.018;23.986;2022-11-03T10:34:59;93189.75;;;20.95;40.38
2214;BME280;1113;42.018;23.986;2022-11-03T10:37:26;93203.41;;;20.78;41.42
2214;BME280;1113;42.018;23.986;2022-11-03T10:39:55;93196.03;;;20.57;42.23
2214;BME280;1113;42.018;23.986;2022-11-03T10:42:25;93184.59;;;20.20;41.09
2214;BME280;1113;42.018;23.986;2022-11-03T10:45:08;93188.88;;;20.05;41.79
2214;BME280;1113;42.018;23.986;2022-11-03T10:47:35;93183.88;;;20.23;41.54
2214;BME280;1113;42.018;23.986;2022-11-03T10:50:18;93188.31;;;20.18;41.96
2214;BME280;1113;42.018;23.986;2022-11-03T10:52:45;93182.13;;;20.04;41.68
2214;BME280;1113;42.018;23.986;2022-11-03T10:55:12;93178.75;;;20.03;41.94
2214;BME280;1113;42.018;23.986;2022-11-03T10:57:41;93172.25;;;20.20;41.64
2214;BME280;1113;42.018;23.986;2022-11-03T11:00:12;93160.16;;;20.38;42.13
2214;BME280;1113;42.018;23.986;2022-11-03T11:02:40;93159.97;;;20.51;42.06
2214;BME280;1113;42.018;23.986;2022-11-03T11:05:13;93159.88;;;20.73;40.69
2214;BME280;1113;42.018;23.986;2022-11-03T11:07:42;93155.56;;;20.88;40.28
2214;BME280;1113;42.018;23.986;2022-11-03T11:10:12;93155.56;;;20.88;42.50
2214;BME280;1113;42.018;23.986;2022-11-03T11:13:03;93153.53;;;21.08;40.56
2214;BME280;1113;42.018;23.986;2022-11-03T11:15:36;93150.97;;;21.49;39.98
2214;BME280;1113;42.018;23.986;2022-11-03T11:18:03;93143.81;;;21.90;38.98
2214;BME280;1113;42.018;23.986;2022-11-03T11:20:35;93142.47;;;22.10;38.37
2214;BME280;1113;42.018;23.986;2022-11-03T11:26:38;93136.97;;;22.33;39.01
2214;BME280;1113;42.018;23.986;2022-11-03T11:40:59;93111.97;;;22.71;37.56
2214;BME280;1113;42.018;23.986;2022-11-03T11:43:26;93106.41;;;22.87;37.40
2214;BME280;1113;42.018;23.986;2022-11-03T11:46:32;93099.31;;;22.98;36.96
2214;BME280;1113;42.018;23.986;2022-11-03T11:49:16;93098.53;;;22.94;37.45
2214;BME280;1113;42.018;23.986;2022-11-03T11:51:44;93096.66;;;22.94;37.15
2214;BME280;1113;42.018;23.986;2022-11-03T11:54:16;93086.91;;;23.09;36.52
2214;BME280;1113;42.018;23.986;2022-11-03T11:56:45;93086.94;;;23.27;36.86
2214;BME280;1113;42.018;23.986;2022-11-03T11:59:18;93084.69;;;23.40;36.15
2214;BME280;1113;42.018;23.986;2022-11-03T12:01:57;93077.94;;;23.49;36.70
2214;BME280;1113;42.018;23.986;2022-11-03T12:04:28;93069.25;;;23.38;35.51
2214;BME280;1113;42.018;23.986;2022-11-03T12:06:59;93074.50;;;23.31;35.84
2214;BME280;1113;42.018;23.986;2022-11-03T12:09:26;93073.00;;;23.09;37.35
2214;BME280;1113;42.018;23.986;2022-11-03T12:11:55;93074.13;;;23.36;36.50
2214;BME280;1113;42.018;23.986;2022-11-03T12:14:24;93061.75;;;23.47;36.84
2214;BME280;1113;42.018;23.986;2022-11-03T12:16:53;93058.38;;;23.57;35.78
2214;BME280;1113;42.018;23.986;2022-11-03T12:19:38;93063.25;;;23.70;37.52
2214;BME280;1113;42.018;23.986;2022-11-03T12:22:08;93055.34;;;23.66;35.96
2214;BME280;1113;42.018;23.986;2022-11-03T12:24:48;93061.78;;;23.58;37.08
2214;BME280;1113;42.018;23.986;2022-11-03T12:30:21;93047.41;;;23.27;37.95
2214;BME280;1113;42.018;23.986;2022-11-03T12:32:48;93054.19;;;23.39;38.96
2214;BME280;1113;42.018;23.986;2022-11-03T12:35:16;93051.94;;;23.41;38.88
2214;BME280;1113;42.018;23.986;2022-11-03T12:37:44;93054.97;;;23.43;37.83
2214;BME280;1113;42.018;23.986;2022-11-03T12:40:12;93059.84;;;23.41;38.50
2214;BME280;1113;42.018;23.986;2022-11-03T12:42:39;93057.94;;;23.30;37.41
2214;BME280;1113;42.018;23.986;2022-11-03T12:45:28;93058.69;;;23.06;38.10
2214;BME280;1113;42.018;23.986;2022-11-03T12:48:05;93053.41;;;22.99;37.97
2214;BME280;1113;42.018;23.986;2022-11-03T12:50:36;93047.63;;;22.58;38.50
2214;BME280;1113;42.018;23.986;2022-11-03T12:53:05;93044.63;;;22.59;38.30
2214;BME280;1113;42.018;23.986;2022-11-03T12:55:33;93045.63;;;22.33;39.30
2214;BME280;1113;42.018;23.986;2022-11-03T12:58:00;93045.31;;;22.39;39.01
2214;BME280;1113;42.018;23.986;2022-11-03T13:00:28;93041.84;;;22.24;39.25
2214;BME280;1113;42.018;23.986;2022-11-03T13:02:54;93031.28;;;22.13;40.14
2214;BME280;1113;42.018;23.986;2022-11-03T13:05:21;93026.03;;;22.20;40.14
2214;BME280;1113;42.018;23.986;2022-11-03T13:07:49;93035.16;;;22.41;41.09
2214;BME280;1113;42.018;23.986;2022-11-03T13:10:17;93031.50;;;22.70;40.30
2214;BME280;1113;42.018;23.986;2022-11-03T13:12:44;93031.16;;;22.86;39.67
2214;BME280;1113;42.018;23.986;2022-11-03T13:15:11;93033.84;;;23.11;38.90
2214;BME280;1113;42.018;23.986;2022-11-03T13:17:40;93025.59;;;23.12;38.58
2214;BME280;1113;42.018;23.986;2022-11-03T13:20:08;93036.13;;;23.23;39.17
2214;BME280;1113;42.018;23.986;2022-11-03T13:22:35;93035.75;;;23.24;38.55
2214;BME280;1113;42.018;23.986;2022-11-03T13:25:04;93030.09;;;23.15;38.53
2214;BME280;1113;42.018;23.986;2022-11-03T13:27:33;93033.88;;;23.53;38.70
2214;BME280;1113;42.018;23.986;2022-11-03T13:29:59;93036.47;;;23.92;38.07
2214;BME280;1113;42.018;23.986;2022-11-03T13:32:26;93033.47;;;23.94;37.75
2214;BME280;1113;42.018;23.986;2022-11-03T13:34:53;93043.66;;;23.85;37.15
2214;BME280;1113;42.018;23.986;2022-11-03T13:37:21;93041.41;;;23.94;38.65
2214;BME280;1113;42.018;23.986;2022-11-03T13:39:47;93048.09;;;24.27;36.86
2214;BME280;1113;42.018;23.986;2022-11-03T13:42:14;93048.09;;;24.20;37.44
2214;BME280;1113;42.018;23.986;2022-11-03T13:44:42;93049.69;;;23.96;36.74
2214;BME280;1113;42.018;23.986;2022-11-03T13:47:09;93053.84;;;23.54;37.40